sensor_id;sensor_type;location;lat;lon;timestamp;P1;durP1;ratioP1;P2;durP2;ratioP2
71763;SDS011;59602;52.142;5.408;2023-04-24T00:00:47;1.23;;;0.20;;
71763;SDS011;59602;52.142;5.408;2023-04-24T00:03:14;0.40;;;0.10;;
71763;SDS011;59602;52.142;5.408;2023-04-24T00:05:41;2.72;;;0.20;;
71763;SDS011;59602;52.142;5.408;2023-04-24T00:08:08;0.52;;;0.10;;
71763;SDS011;59602;52.142;5.408;2023-04-24T00:10:34;0.50;;;0.10;;
71763;SDS011;59602;52.142;5.408;2023-04-24T00:13:01;0.40;;;0.20;;
71763;SDS011;59602;52.142;5.408;2023-04-24T00:15:28;1.10;;;0.10;;
71763;SDS011;59602;52.142;5.408;2023-04-24T00:17:54;0.85;;;0.20;;
71763;SDS011;59602;52.142;5.408;2023-04-24T00:20:21;0.40;;;0.10;;
71763;SDS011;59602;52.142;5.408;2023-04-24T00:22:48;0.60;;;0.10;;
71763;SDS011;59602;52.142;5.408;2023-04-24T00:25:15;0.70;;;0.20;;
71763;SDS011;59602;52.142;5.408;2023-04-24T00:27:42;1.70;;;0.20;;
71763;SDS011;59602;52.142;5.408;2023-04-24T00:30:08;1.90;;;0.20;;
71763;SDS011;59602;52.142;5.408;2023-04-24T00:32:35;0.95;;;0.30;;
71763;SDS011;59602;52.142;5.408;2023-04-24T00:35:02;0.75;;;0.20;;
71763;SDS011;59602;52.142;5.408;2023-04-24T00:37:29;1.55;;;0.30;;
71763;SDS011;59602;52.142;5.408;2023-04-24T00:39:55;1.53;;;0.37;;
71763;SDS011;59602;52.142;5.408;2023-04-24T00:42:22;1.20;;;0.30;;
71763;SDS011;59602;52.142;5.408;2023-04-24T00:44:49;1.13;;;0.30;;
71763;SDS011;59602;52.142;5.408;2023-04-24T00:47:16;1.40;;;0.20;;
71763;SDS011;59602;52.142;5.408;2023-04-24T00:49:45;0.75;;;0.30;;
71763;SDS011;59602;52.142;5.408;2023-04-24T00:52:11;2.27;;;0.53;;
71763;SDS011;59602;52.142;5.408;2023-04-24T00:54:38;2.33;;;0.40;;
71763;SDS011;59602;52.142;5.408;2023-04-24T00:57:05;1.45;;;0.43;;
71763;SDS011;59602;52.142;5.408;2023-04-24T00:59:32;1.13;;;0.45;;
71763;SDS011;59602;52.142;5.408;2023-04-24T01:01:58;1.95;;;0.40;;
71763;SDS011;59602;52.142;5.408;2023-04-24T01:04:25;2.03;;;0.50;;
71763;SDS011;59602;52.142;5.408;2023-04-24T01:06:52;1.45;;;0.60;;
71763;SDS011;59602;52.142;5.408;2023-04-24T01:09:24;1.50;;;0.50;;
71763;SDS011;59602;52.142;5.408;2023-04-24T01:11:51;2.13;;;0.60;;
71763;SDS011;59602;52.142;5.408;2023-04-24T01:14:18;1.83;;;0.60;;
71763;SDS011;59602;52.142;5.408;2023-04-24T01:16:44;3.27;;;0.60;;
71763;SDS011;59602;52.142;5.408;2023-04-24T01:19:11;1.83;;;0.90;;
71763;SDS011;59602;52.142;5.408;2023-04-24T01:21:39;2.72;;;0.90;;
71763;SDS011;59602;52.142;5.408;2023-04-24T01:24:08;1.98;;;0.90;;
71763;SDS011;59602;52.142;5.408;2023-04-24T01:26:34;3.08;;;1.10;;
71763;SDS011;59602;52.142;5.408;2023-04-24T01:29:03;2.03;;;0.90;;
71763;SDS011;59602;52.142;5.408;2023-04-24T01:31:30;4.30;;;1.48;;
71763;SDS011;59602;52.142;5.408;2023-04-24T01:33:57;3.97;;;1.42;;
71763;SDS011;59602;52.142;5.408;2023-04-24T01:36:24;2.83;;;1.42;;
71763;SDS011;59602;52.142;5.408;2023-04-24T01:38:53;3.17;;;1.23;;
71763;SDS011;59602;52.142;5.408;2023-04-24T01:41:19;3.87;;;1.30;;
71763;SDS011;59602;52.142;5.408;2023-04-24T01:43:47;4.10;;;1.60;;
71763;SDS011;59602;52.142;5.408;2023-04-24T01:46:15;2.88;;;1.00;;
71763;SDS011;59602;52.142;5.408;2023-04-24T01:48:41;1.83;;;1.10;;
71763;SDS011;59602;52.142;5.408;2023-04-24T01:51:08;3.22;;;1.50;;
71763;SDS011;59602;52.142;5.408;2023-04-24T01:53:34;2.53;;;1.27;;
71763;SDS011;59602;52.142;5.408;2023-04-24T01:56:01;3.08;;;1.38;;
71763;SDS011;59602;52.142;5.408;2023-04-24T01:58:28;3.92;;;1.67;;
71763;SDS011;59602;52.142;5.408;2023-04-24T02:00:56;2.42;;;1.25;;
71763;SDS011;59602;52.142;5.408;2023-04-24T02:03:25;3.00;;;1.73;;
71763;SDS011;59602;52.142;5.408;2023-04-24T02:05:53;3.67;;;1.60;;
71763;SDS011;59602;52.142;5.408;2023-04-24T02:08:19;4.18;;;1.52;;
71763;SDS011;59602;52.142;5.408;2023-04-24T02:10:46;4.50;;;1.90;;
71763;SDS011;59602;52.142;5.408;2023-04-24T02:13:12;3.65;;;1.45;;
71763;SDS011;59602;52.142;5.408;2023-04-24T02:15:39;3.20;;;1.60;;
71763;SDS011;59602;52.142;5.408;2023-04-24T02:18:06;2.97;;;1.50;;
71763;SDS011;59602;52.142;5.408;2023-04-24T02:20:33;3.05;;;1.77;;
71763;SDS011;59602;52.142;5.408;2023-04-24T02:23:01;3.28;;;1.30;;
71763;SDS011;59602;52.142;5.408;2023-04-24T02:25:28;3.35;;;1.58;;
71763;SDS011;59602;52.142;5.408;2023-04-24T02:27:54;2.78;;;1.40;;
71763;SDS011;59602;52.142;5.408;2023-04-24T02:30:21;3.20;;;1.20;;
71763;SDS011;59602;52.142;5.408;2023-04-24T02:32:48;2.20;;;1.20;;
71763;SDS011;59602;52.142;5.408;2023-04-24T02:35:14;3.20;;;1.20;;
71763;SDS011;59602;52.142;5.408;2023-04-24T02:37:41;2.70;;;1.10;;
71763;SDS011;59602;52.142;5.408;2023-04-24T02:40:10;3.90;;;1.13;;
71763;SDS011;59602;52.142;5.408;2023-04-24T02:42:37;2.40;;;0.90;;
71763;SDS011;59602;52.142;5.408;2023-04-24T02:45:03;2.05;;;0.80;;
71763;SDS011;59602;52.142;5.408;2023-04-24T02:47:31;2.22;;;1.02;;
71763;SDS011;59602;52.142;5.408;2023-04-24T02:49:57;2.97;;;1.08;;
71763;SDS011;59602;52.142;5.408;2023-04-24T02:52:24;2.80;;;1.40;;
71763;SDS011;59602;52.142;5.408;2023-04-24T02:54:50;3.73;;;1.30;;
71763;SDS011;59602;52.142;5.408;2023-04-24T02:57:17;4.20;;;1.38;;
71763;SDS011;59602;52.142;5.408;2023-04-24T02:59:44;4.28;;;1.23;;
71763;SDS011;59602;52.142;5.408;2023-04-24T03:02:10;3.50;;;1.38;;
71763;SDS011;59602;52.142;5.408;2023-04-24T03:04:37;3.83;;;1.67;;
71763;SDS011;59602;52.142;5.408;2023-04-24T03:07:04;3.83;;;1.40;;
71763;SDS011;59602;52.142;5.408;2023-04-24T03:09:30;2.75;;;1.40;;
71763;SDS011;59602;52.142;5.408;2023-04-24T03:11:57;5.63;;;1.58;;
71763;SDS011;59602;52.142;5.408;2023-04-24T03:14:24;3.08;;;1.30;;
71763;SDS011;59602;52.142;5.408;2023-04-24T03:16:51;4.97;;;1.60;;
71763;SDS011;59602;52.142;5.408;2023-04-24T03:19:19;3.00;;;1.30;;
71763;SDS011;59602;52.142;5.408;2023-04-24T03:21:47;3.00;;;1.40;;
71763;SDS011;59602;52.142;5.408;2023-04-24T03:24:14;3.25;;;1.50;;
71763;SDS011;59602;52.142;5.408;2023-04-24T03:26:41;3.45;;;1.50;;
71763;SDS011;59602;52.142;5.408;2023-04-24T03:29:07;5.15;;;1.50;;
71763;SDS011;59602;52.142;5.408;2023-04-24T03:31:34;4.50;;;1.53;;
71763;SDS011;59602;52.142;5.408;2023-04-24T03:34:01;5.43;;;1.60;;
71763;SDS011;59602;52.142;5.408;2023-04-24T03:36:27;5.20;;;1.20;;
71763;SDS011;59602;52.142;5.408;2023-04-24T03:38:55;3.22;;;1.48;;
71763;SDS011;59602;52.142;5.408;2023-04-24T03:41:21;4.03;;;1.35;;
71763;SDS011;59602;52.142;5.408;2023-04-24T03:43:48;3.13;;;1.40;;
71763;SDS011;59602;52.142;5.408;2023-04-24T03:46:15;3.63;;;1.38;;
71763;SDS011;59602;52.142;5.408;2023-04-24T03:48:42;3.40;;;1.40;;
71763;SDS011;59602;52.142;5.408;2023-04-24T03:51:09;3.17;;;1.20;;
71763;SDS011;59602;52.142;5.408;2023-04-24T03:53:35;4.72;;;1.58;;
71763;SDS011;59602;52.142;5.408;2023-04-24T03:56:02;2.77;;;1.23;;
71763;SDS011;59602;52.142;5.408;2023-04-24T03:58:28;4.13;;;1.83;;
71763;SDS011;59602;52.142;5.408;2023-04-24T04:00:55;3.85;;;1.70;;
71763;SDS011;59602;52.142;5.408;2023-04-24T04:03:24;5.50;;;1.45;;
71763;SDS011;59602;52.142;5.408;2023-04-24T04:05:51;4.47;;;1.35;;
71763;SDS011;59602;52.142;5.408;2023-04-24T04:08:19;3.13;;;1.07;;
71763;SDS011;59602;52.142;5.408;2023-04-24T04:10:46;3.10;;;0.80;;
71763;SDS011;59602;52.142;5.408;2023-04-24T04:13:12;2.45;;;0.77;;
71763;SDS011;59602;52.142;5.408;2023-04-24T04:15:39;2.45;;;0.45;;
71763;SDS011;59602;52.142;5.408;2023-04-24T04:18:05;1.77;;;0.50;;
71763;SDS011;59602;52.142;5.408;2023-04-24T04:20:32;2.27;;;0.50;;
71763;SDS011;59602;52.142;5.408;2023-04-24T04:22:59;1.98;;;0.50;;
71763;SDS011;59602;52.142;5.408;2023-04-24T04:25:26;1.42;;;0.40;;
71763;SDS011;59602;52.142;5.408;2023-04-24T04:27:52;1.50;;;0.30;;
71763;SDS011;59602;52.142;5.408;2023-04-24T04:30:19;1.52;;;0.40;;
71763;SDS011;59602;52.142;5.408;2023-04-24T04:32:47;2.30;;;0.30;;
71763;SDS011;59602;52.142;5.408;2023-04-24T04:35:13;1.55;;;0.30;;
71763;SDS011;59602;52.142;5.408;2023-04-24T04:37:40;2.30;;;0.50;;
71763;SDS011;59602;52.142;5.408;2023-04-24T04:40:07;1.73;;;0.40;;
71763;SDS011;59602;52.142;5.408;2023-04-24T04:42:37;2.33;;;0.70;;
71763;SDS011;59602;52.142;5.408;2023-04-24T04:45:07;3.03;;;0.53;;
71763;SDS011;59602;52.142;5.408;2023-04-24T04:47:35;1.98;;;0.52;;
71763;SDS011;59602;52.142;5.408;2023-04-24T04:50:02;2.53;;;0.65;;
71763;SDS011;59602;52.142;5.408;2023-04-24T04:52:30;1.77;;;0.55;;
71763;SDS011;59602;52.142;5.408;2023-04-24T04:54:56;2.10;;;0.60;;
71763;SDS011;59602;52.142;5.408;2023-04-24T04:57:23;3.20;;;0.73;;
71763;SDS011;59602;52.142;5.408;2023-04-24T04:59:49;2.70;;;0.90;;
71763;SDS011;59602;52.142;5.408;2023-04-24T05:02:16;4.32;;;1.05;;
71763;SDS011;59602;52.142;5.408;2023-04-24T05:04:43;3.10;;;1.08;;
71763;SDS011;59602;52.142;5.408;2023-04-24T05:07:10;2.83;;;0.90;;
71763;SDS011;59602;52.142;5.408;2023-04-24T05:09:37;3.50;;;1.30;;
71763;SDS011;59602;52.142;5.408;2023-04-24T05:12:03;4.18;;;1.40;;
71763;SDS011;59602;52.142;5.408;2023-04-24T05:14:30;4.45;;;1.98;;
71763;SDS011;59602;52.142;5.408;2023-04-24T05:16:56;5.10;;;1.50;;
71763;SDS011;59602;52.142;5.408;2023-04-24T05:19:23;5.20;;;1.85;;
71763;SDS011;59602;52.142;5.408;2023-04-24T05:21:50;5.10;;;1.63;;
71763;SDS011;59602;52.142;5.408;2023-04-24T05:24:16;3.47;;;1.50;;
71763;SDS011;59602;52.142;5.408;2023-04-24T05:26:43;4.15;;;1.90;;
71763;SDS011;59602;52.142;5.408;2023-04-24T05:29:09;4.70;;;1.52;;
71763;SDS011;59602;52.142;5.408;2023-04-24T05:31:37;6.03;;;1.88;;
71763;SDS011;59602;52.142;5.408;2023-04-24T05:34:03;4.63;;;1.50;;
71763;SDS011;59602;52.142;5.408;2023-04-24T05:36:31;5.25;;;1.52;;
71763;SDS011;59602;52.142;5.408;2023-04-24T05:38:58;4.28;;;1.50;;
71763;SDS011;59602;52.142;5.408;2023-04-24T05:41:24;4.30;;;1.50;;
71763;SDS011;59602;52.142;5.408;2023-04-24T05:43:51;6.22;;;1.67;;
71763;SDS011;59602;52.142;5.408;2023-04-24T05:46:17;4.50;;;1.50;;
71763;SDS011;59602;52.142;5.408;2023-04-24T05:48:44;5.43;;;1.60;;
71763;SDS011;59602;52.142;5.408;2023-04-24T05:51:11;4.30;;;1.17;;
71763;SDS011;59602;52.142;5.408;2023-04-24T05:53:38;3.20;;;1.13;;
71763;SDS011;59602;52.142;5.408;2023-04-24T05:56:05;3.30;;;0.95;;
71763;SDS011;59602;52.142;5.408;2023-04-24T05:58:32;5.57;;;1.07;;
71763;SDS011;59602;52.142;5.408;2023-04-24T06:00:58;4.05;;;0.50;;
71763;SDS011;59602;52.142;5.408;2023-04-24T06:03:27;4.70;;;0.50;;
71763;SDS011;59602;52.142;5.408;2023-04-24T06:05:54;2.97;;;0.45;;
71763;SDS011;59602;52.142;5.408;2023-04-24T06:08:21;3.55;;;0.40;;
71763;SDS011;59602;52.142;5.408;2023-04-24T06:10:47;3.07;;;0.60;;
71763;SDS011;59602;52.142;5.408;2023-04-24T06:13:14;4.18;;;0.70;;
71763;SDS011;59602;52.142;5.408;2023-04-24T06:15:41;3.63;;;0.75;;
71763;SDS011;59602;52.142;5.408;2023-04-24T06:18:08;2.75;;;0.50;;
71763;SDS011;59602;52.142;5.408;2023-04-24T06:20:36;4.30;;;0.35;;
71763;SDS011;59602;52.142;5.408;2023-04-24T06:23:03;2.47;;;0.40;;
71763;SDS011;59602;52.142;5.408;2023-04-24T06:25:29;3.05;;;0.28;;
71763;SDS011;59602;52.142;5.408;2023-04-24T06:27:56;1.73;;;0.20;;
71763;SDS011;59602;52.142;5.408;2023-04-24T06:30:23;3.42;;;0.40;;
71763;SDS011;59602;52.142;5.408;2023-04-24T06:32:50;3.40;;;0.38;;
71763;SDS011;59602;52.142;5.408;2023-04-24T06:35:17;2.30;;;0.30;;
71763;SDS011;59602;52.142;5.408;2023-04-24T06:37:44;2.45;;;0.20;;
71763;SDS011;59602;52.142;5.408;2023-04-24T06:40:10;4.70;;;1.10;;
71763;SDS011;59602;52.142;5.408;2023-04-24T06:42:37;2.85;;;0.30;;
71763;SDS011;59602;52.142;5.408;2023-04-24T06:45:04;4.90;;;1.27;;
71763;SDS011;59602;52.142;5.408;2023-04-24T06:47:31;5.50;;;1.37;;
71763;SDS011;59602;52.142;5.408;2023-04-24T06:49:58;4.55;;;1.88;;
71763;SDS011;59602;52.142;5.408;2023-04-24T06:52:25;5.43;;;2.35;;
71763;SDS011;59602;52.142;5.408;2023-04-24T06:54:52;6.57;;;2.70;;
71763;SDS011;59602;52.142;5.408;2023-04-24T06:57:18;9.65;;;3.40;;
71763;SDS011;59602;52.142;5.408;2023-04-24T06:59:46;8.27;;;3.47;;
71763;SDS011;59602;52.142;5.408;2023-04-24T07:02:12;8.57;;;3.70;;
71763;SDS011;59602;52.142;5.408;2023-04-24T07:04:39;12.80;;;3.83;;
71763;SDS011;59602;52.142;5.408;2023-04-24T07:07:06;11.43;;;4.35;;
71763;SDS011;59602;52.142;5.408;2023-04-24T07:09:35;10.65;;;4.15;;
71763;SDS011;59602;52.142;5.408;2023-04-24T07:12:05;9.03;;;3.63;;
71763;SDS011;59602;52.142;5.408;2023-04-24T07:14:32;8.23;;;3.58;;
71763;SDS011;59602;52.142;5.408;2023-04-24T07:16:59;7.80;;;3.50;;
71763;SDS011;59602;52.142;5.408;2023-04-24T07:19:26;7.07;;;3.30;;
71763;SDS011;59602;52.142;5.408;2023-04-24T07:21:52;7.82;;;3.47;;
71763;SDS011;59602;52.142;5.408;2023-04-24T07:24:21;7.63;;;3.40;;
71763;SDS011;59602;52.142;5.408;2023-04-24T07:26:52;8.95;;;3.55;;
71763;SDS011;59602;52.142;5.408;2023-04-24T07:29:21;9.32;;;3.90;;
71763;SDS011;59602;52.142;5.408;2023-04-24T07:31:50;7.68;;;3.15;;
71763;SDS011;59602;52.142;5.408;2023-04-24T07:34:17;8.25;;;3.25;;
71763;SDS011;59602;52.142;5.408;2023-04-24T07:36:44;7.77;;;3.30;;
71763;SDS011;59602;52.142;5.408;2023-04-24T07:39:10;7.70;;;3.40;;
71763;SDS011;59602;52.142;5.408;2023-04-24T07:41:37;10.32;;;3.10;;
71763;SDS011;59602;52.142;5.408;2023-04-24T07:44:04;9.13;;;3.20;;
71763;SDS011;59602;52.142;5.408;2023-04-24T07:46:31;6.88;;;3.20;;
71763;SDS011;59602;52.142;5.408;2023-04-24T07:48:58;7.20;;;2.87;;
71763;SDS011;59602;52.142;5.408;2023-04-24T07:51:38;8.43;;;3.17;;
71763;SDS011;59602;52.142;5.408;2023-04-24T07:54:05;6.85;;;2.50;;
71763;SDS011;59602;52.142;5.408;2023-04-24T07:56:32;9.70;;;3.10;;
71763;SDS011;59602;52.142;5.408;2023-04-24T07:59:00;7.75;;;3.20;;
71763;SDS011;59602;52.142;5.408;2023-04-24T08:01:27;7.10;;;2.90;;
71763;SDS011;59602;52.142;5.408;2023-04-24T08:03:54;10.18;;;3.72;;
71763;SDS011;59602;52.142;5.408;2023-04-24T08:06:21;9.48;;;3.58;;
71763;SDS011;59602;52.142;5.408;2023-04-24T08:08:48;8.43;;;3.22;;
71763;SDS011;59602;52.142;5.408;2023-04-24T08:11:14;11.07;;;3.08;;
71763;SDS011;59602;52.142;5.408;2023-04-24T08:13:41;8.83;;;2.70;;
71763;SDS011;59602;52.142;5.408;2023-04-24T08:16:08;7.68;;;2.00;;
71763;SDS011;59602;52.142;5.408;2023-04-24T08:18:34;7.53;;;1.83;;
71763;SDS011;59602;52.142;5.408;2023-04-24T08:21:02;8.50;;;1.70;;
71763;SDS011;59602;52.142;5.408;2023-04-24T08:23:29;7.00;;;1.90;;
71763;SDS011;59602;52.142;5.408;2023-04-24T08:25:55;6.90;;;1.70;;
71763;SDS011;59602;52.142;5.408;2023-04-24T08:28:23;5.35;;;1.30;;
71763;SDS011;59602;52.142;5.408;2023-04-24T08:30:50;5.20;;;1.17;;
71763;SDS011;59602;52.142;5.408;2023-04-24T08:33:22;8.65;;;1.58;;
71763;SDS011;59602;52.142;5.408;2023-04-24T08:35:49;6.90;;;1.45;;
71763;SDS011;59602;52.142;5.408;2023-04-24T08:38:16;6.30;;;1.53;;
71763;SDS011;59602;52.142;5.408;2023-04-24T08:40:43;6.80;;;1.33;;
71763;SDS011;59602;52.142;5.408;2023-04-24T08:43:12;6.68;;;1.48;;
71763;SDS011;59602;52.142;5.408;2023-04-24T08:45:40;9.75;;;1.48;;
71763;SDS011;59602;52.142;5.408;2023-04-24T08:48:07;6.00;;;1.00;;
71763;SDS011;59602;52.142;5.408;2023-04-24T08:50:41;6.73;;;1.33;;
71763;SDS011;59602;52.142;5.408;2023-04-24T08:53:10;9.00;;;0.85;;
71763;SDS011;59602;52.142;5.408;2023-04-24T08:55:37;8.25;;;1.17;;
71763;SDS011;59602;52.142;5.408;2023-04-24T08:58:04;7.72;;;0.73;;
71763;SDS011;59602;52.142;5.408;2023-04-24T09:00:31;6.28;;;0.73;;
71763;SDS011;59602;52.142;5.408;2023-04-24T09:03:00;2.77;;;0.60;;
71763;SDS011;59602;52.142;5.408;2023-04-24T09:05:28;9.02;;;0.90;;
71763;SDS011;59602;52.142;5.408;2023-04-24T09:07:55;3.65;;;0.70;;
71763;SDS011;59602;52.142;5.408;2023-04-24T09:10:23;6.68;;;0.52;;
71763;SDS011;59602;52.142;5.408;2023-04-24T09:12:51;3.38;;;0.80;;
71763;SDS011;59602;52.142;5.408;2023-04-24T09:15:19;7.93;;;0.60;;
71763;SDS011;59602;52.142;5.408;2023-04-24T09:17:46;4.15;;;0.55;;
71763;SDS011;59602;52.142;5.408;2023-04-24T09:20:13;5.00;;;0.63;;
71763;SDS011;59602;52.142;5.408;2023-04-24T09:22:40;4.22;;;0.50;;
71763;SDS011;59602;52.142;5.408;2023-04-24T09:25:08;8.30;;;0.63;;
71763;SDS011;59602;52.142;5.408;2023-04-24T09:27:44;4.00;;;0.43;;
71763;SDS011;59602;52.142;5.408;2023-04-24T09:30:11;7.43;;;0.77;;
71763;SDS011;59602;52.142;5.408;2023-04-24T09:32:39;4.18;;;0.73;;
71763;SDS011;59602;52.142;5.408;2023-04-24T09:37:36;4.75;;;0.50;;
71763;SDS011;59602;52.142;5.408;2023-04-24T09:40:10;5.23;;;0.50;;
71763;SDS011;59602;52.142;5.408;2023-04-24T09:42:39;5.43;;;0.50;;
71763;SDS011;59602;52.142;5.408;2023-04-24T09:45:09;6.15;;;0.63;;
71763;SDS011;59602;52.142;5.408;2023-04-24T09:47:41;3.72;;;0.40;;
71763;SDS011;59602;52.142;5.408;2023-04-24T09:50:10;7.10;;;0.70;;
71763;SDS011;59602;52.142;5.408;2023-04-24T09:52:43;5.33;;;0.57;;
71763;SDS011;59602;52.142;5.408;2023-04-24T09:55:16;3.22;;;0.30;;
71763;SDS011;59602;52.142;5.408;2023-04-24T09:57:49;5.80;;;0.68;;
71763;SDS011;59602;52.142;5.408;2023-04-24T10:00:23;5.93;;;0.70;;
71763;SDS011;59602;52.142;5.408;2023-04-24T10:03:00;5.43;;;0.50;;
71763;SDS011;59602;52.142;5.408;2023-04-24T10:05:35;6.73;;;0.50;;
71763;SDS011;59602;52.142;5.408;2023-04-24T10:08:03;4.63;;;0.60;;
71763;SDS011;59602;52.142;5.408;2023-04-24T10:10:32;5.68;;;0.40;;
71763;SDS011;59602;52.142;5.408;2023-04-24T10:13:00;3.53;;;0.40;;
71763;SDS011;59602;52.142;5.408;2023-04-24T10:15:27;7.13;;;0.50;;
71763;SDS011;59602;52.142;5.408;2023-04-24T10:17:54;7.63;;;0.60;;
71763;SDS011;59602;52.142;5.408;2023-04-24T10:20:54;5.40;;;0.43;;
71763;SDS011;59602;52.142;5.408;2023-04-24T10:23:15;4.18;;;0.52;;
71763;SDS011;59602;52.142;5.408;2023-04-24T10:25:45;5.13;;;0.30;;
71763;SDS011;59602;52.142;5.408;2023-04-24T10:28:12;4.88;;;0.30;;
71763;SDS011;59602;52.142;5.408;2023-04-24T10:30:40;2.13;;;0.10;;
71763;SDS011;59602;52.142;5.408;2023-04-24T10:33:09;3.22;;;0.20;;
71763;SDS011;59602;52.142;5.408;2023-04-24T10:35:38;3.00;;;0.30;;
71763;SDS011;59602;52.142;5.408;2023-04-24T10:38:11;4.10;;;0.30;;
71763;SDS011;59602;52.142;5.408;2023-04-24T10:40:41;3.97;;;0.20;;
71763;SDS011;59602;52.142;5.408;2023-04-24T10:43:09;4.37;;;0.20;;
71763;SDS011;59602;52.142;5.408;2023-04-24T10:45:37;1.80;;;0.20;;
71763;SDS011;59602;52.142;5.408;2023-04-24T10:48:05;3.65;;;0.10;;
71763;SDS011;59602;52.142;5.408;2023-04-24T10:50:43;2.78;;;0.20;;
71763;SDS011;59602;52.142;5.408;2023-04-24T10:53:15;2.05;;;0.10;;
71763;SDS011;59602;52.142;5.408;2023-04-24T10:55:44;1.30;;;0.10;;
71763;SDS011;59602;52.142;5.408;2023-04-24T10:58:13;0.60;;;0.10;;
71763;SDS011;59602;52.142;5.408;2023-04-24T11:00:42;1.13;;;0.10;;
71763;SDS011;59602;52.142;5.408;2023-04-24T11:06:07;1.45;;;0.20;;
71763;SDS011;59602;52.142;5.408;2023-04-24T11:08:42;2.43;;;0.20;;
71763;SDS011;59602;52.142;5.408;2023-04-24T11:11:12;2.58;;;0.10;;
71763;SDS011;59602;52.142;5.408;2023-04-24T11:16:29;1.98;;;0.17;;
71763;SDS011;59602;52.142;5.408;2023-04-24T11:19:02;3.15;;;0.20;;
71763;SDS011;59602;52.142;5.408;2023-04-24T11:21:43;2.13;;;0.30;;
71763;SDS011;59602;52.142;5.408;2023-04-24T11:26:51;3.03;;;0.15;;
71763;SDS011;59602;52.142;5.408;2023-04-24T11:32:18;0.90;;;0.10;;
71763;SDS011;59602;52.142;5.408;2023-04-24T11:34:52;1.37;;;0.10;;
71763;SDS011;59602;52.142;5.408;2023-04-24T11:37:21;2.53;;;0.20;;
71763;SDS011;59602;52.142;5.408;2023-04-24T11:39:51;3.58;;;0.10;;
71763;SDS011;59602;52.142;5.408;2023-04-24T11:42:18;2.45;;;0.20;;
71763;SDS011;59602;52.142;5.408;2023-04-24T11:44:49;3.53;;;0.35;;
71763;SDS011;59602;52.142;5.408;2023-04-24T11:47:19;5.00;;;0.20;;
71763;SDS011;59602;52.142;5.408;2023-04-24T11:49:49;1.25;;;0.00;;
71763;SDS011;59602;52.142;5.408;2023-04-24T11:52:16;3.33;;;0.10;;
71763;SDS011;59602;52.142;5.408;2023-04-24T11:54:48;1.95;;;0.10;;
71763;SDS011;59602;52.142;5.408;2023-04-24T11:57:19;1.60;;;0.10;;
71763;SDS011;59602;52.142;5.408;2023-04-24T11:59:48;2.93;;;0.10;;
71763;SDS011;59602;52.142;5.408;2023-04-24T12:02:22;1.77;;;0.00;;
71763;SDS011;59602;52.142;5.408;2023-04-24T12:04:51;1.58;;;0.10;;
71763;SDS011;59602;52.142;5.408;2023-04-24T12:07:19;1.13;;;0.10;;
71763;SDS011;59602;52.142;5.408;2023-04-24T12:09:49;1.08;;;0.10;;
71763;SDS011;59602;52.142;5.408;2023-04-24T12:12:30;0.83;;;0.00;;
71763;SDS011;59602;52.142;5.408;2023-04-24T12:14:57;1.30;;;0.10;;
71763;SDS011;59602;52.142;5.408;2023-04-24T12:17:28;1.80;;;0.10;;
71763;SDS011;59602;52.142;5.408;2023-04-24T12:19:58;1.65;;;0.10;;
71763;SDS011;59602;52.142;5.408;2023-04-24T12:22:26;1.35;;;0.10;;
71763;SDS011;59602;52.142;5.408;2023-04-24T12:25:03;3.63;;;0.10;;
71763;SDS011;59602;52.142;5.408;2023-04-24T12:27:31;2.67;;;0.10;;
71763;SDS011;59602;52.142;5.408;2023-04-24T12:30:00;1.52;;;0.10;;
71763;SDS011;59602;52.142;5.408;2023-04-24T12:32:29;2.58;;;0.10;;
71763;SDS011;59602;52.142;5.408;2023-04-24T12:35:10;3.08;;;0.10;;
71763;SDS011;59602;52.142;5.408;2023-04-24T12:37:37;2.67;;;0.20;;
71763;SDS011;59602;52.142;5.408;2023-04-24T12:40:06;1.25;;;0.30;;
71763;SDS011;59602;52.142;5.408;2023-04-24T12:42:35;3.45;;;0.20;;
71763;SDS011;59602;52.142;5.408;2023-04-24T12:45:08;2.05;;;0.10;;
71763;SDS011;59602;52.142;5.408;2023-04-24T12:47:35;2.75;;;0.20;;
71763;SDS011;59602;52.142;5.408;2023-04-24T12:50:02;2.57;;;0.30;;
71763;SDS011;59602;52.142;5.408;2023-04-24T12:52:29;3.55;;;0.25;;
71763;SDS011;59602;52.142;5.408;2023-04-24T12:54:57;3.05;;;0.45;;
71763;SDS011;59602;52.142;5.408;2023-04-24T12:57:26;3.65;;;0.30;;
71763;SDS011;59602;52.142;5.408;2023-04-24T12:59:54;3.30;;;0.40;;
71763;SDS011;59602;52.142;5.408;2023-04-24T13:02:22;6.30;;;0.50;;
71763;SDS011;59602;52.142;5.408;2023-04-24T13:04:50;5.40;;;0.40;;
71763;SDS011;59602;52.142;5.408;2023-04-24T13:07:17;3.03;;;0.30;;
71763;SDS011;59602;52.142;5.408;2023-04-24T13:09:44;6.40;;;0.30;;
71763;SDS011;59602;52.142;5.408;2023-04-24T13:12:12;4.47;;;0.28;;
71763;SDS011;59602;52.142;5.408;2023-04-24T13:14:40;7.80;;;0.73;;
71763;SDS011;59602;52.142;5.408;2023-04-24T13:17:07;7.65;;;0.75;;
71763;SDS011;59602;52.142;5.408;2023-04-24T13:19:35;11.18;;;1.15;;
71763;SDS011;59602;52.142;5.408;2023-04-24T13:22:03;5.93;;;0.50;;
71763;SDS011;59602;52.142;5.408;2023-04-24T13:24:29;4.07;;;0.40;;
71763;SDS011;59602;52.142;5.408;2023-04-24T13:26:57;6.37;;;0.30;;
71763;SDS011;59602;52.142;5.408;2023-04-24T13:29:24;5.88;;;0.68;;
71763;SDS011;59602;52.142;5.408;2023-04-24T13:31:52;5.57;;;0.68;;
71763;SDS011;59602;52.142;5.408;2023-04-24T13:34:21;6.22;;;0.52;;
71763;SDS011;59602;52.142;5.408;2023-04-24T13:36:49;6.13;;;0.65;;
71763;SDS011;59602;52.142;5.408;2023-04-24T13:39:19;5.00;;;0.50;;
71763;SDS011;59602;52.142;5.408;2023-04-24T13:41:46;4.35;;;0.80;;
71763;SDS011;59602;52.142;5.408;2023-04-24T13:44:14;6.68;;;0.63;;
71763;SDS011;59602;52.142;5.408;2023-04-24T13:46:42;5.68;;;0.70;;
71763;SDS011;59602;52.142;5.408;2023-04-24T13:49:11;5.82;;;0.73;;
71763;SDS011;59602;52.142;5.408;2023-04-24T13:51:40;5.90;;;0.40;;
71763;SDS011;59602;52.142;5.408;2023-04-24T13:54:07;7.45;;;0.77;;
71763;SDS011;59602;52.142;5.408;2023-04-24T13:56:34;7.78;;;0.68;;
71763;SDS011;59602;52.142;5.408;2023-04-24T13:59:01;7.15;;;0.65;;
71763;SDS011;59602;52.142;5.408;2023-04-24T14:01:28;5.18;;;0.77;;
71763;SDS011;59602;52.142;5.408;2023-04-24T14:03:55;8.93;;;0.93;;
71763;SDS011;59602;52.142;5.408;2023-04-24T14:06:22;6.00;;;0.77;;
71763;SDS011;59602;52.142;5.408;2023-04-24T14:09:03;3.22;;;0.60;;
71763;SDS011;59602;52.142;5.408;2023-04-24T14:11:30;5.15;;;0.68;;
71763;SDS011;59602;52.142;5.408;2023-04-24T14:13:56;3.50;;;0.47;;
71763;SDS011;59602;52.142;5.408;2023-04-24T14:16:23;7.30;;;1.10;;
71763;SDS011;59602;52.142;5.408;2023-04-24T14:18:50;7.72;;;0.65;;
71763;SDS011;59602;52.142;5.408;2023-04-24T14:21:17;3.95;;;0.70;;
71763;SDS011;59602;52.142;5.408;2023-04-24T14:23:44;6.82;;;1.17;;
71763;SDS011;59602;52.142;5.408;2023-04-24T14:26:11;7.95;;;0.98;;
71763;SDS011;59602;52.142;5.408;2023-04-24T14:28:37;5.47;;;0.50;;
71763;SDS011;59602;52.142;5.408;2023-04-24T14:31:04;6.93;;;0.85;;
71763;SDS011;59602;52.142;5.408;2023-04-24T14:33:31;6.45;;;0.90;;
71763;SDS011;59602;52.142;5.408;2023-04-24T14:35:58;6.88;;;0.80;;
71763;SDS011;59602;52.142;5.408;2023-04-24T14:38:25;6.03;;;0.70;;
71763;SDS011;59602;52.142;5.408;2023-04-24T14:40:51;8.53;;;1.13;;
71763;SDS011;59602;52.142;5.408;2023-04-24T14:43:32;6.78;;;0.85;;
71763;SDS011;59602;52.142;5.408;2023-04-24T14:46:02;8.45;;;0.95;;
71763;SDS011;59602;52.142;5.408;2023-04-24T14:48:29;5.57;;;1.02;;
71763;SDS011;59602;52.142;5.408;2023-04-24T14:50:56;5.60;;;0.77;;
71763;SDS011;59602;52.142;5.408;2023-04-24T14:53:22;7.47;;;1.27;;
71763;SDS011;59602;52.142;5.408;2023-04-24T14:55:50;6.15;;;0.80;;
71763;SDS011;59602;52.142;5.408;2023-04-24T14:58:17;5.93;;;1.00;;
71763;SDS011;59602;52.142;5.408;2023-04-24T15:00:45;7.93;;;1.30;;
71763;SDS011;59602;52.142;5.408;2023-04-24T15:03:11;7.50;;;0.90;;
71763;SDS011;59602;52.142;5.408;2023-04-24T15:05:47;5.83;;;0.77;;